Thunder radar more information blitzortung!


Radar de pluja more information rain snow radar


Visita la nostra xarxa de llocs de meteo:

Template documentation
and downloads

And another site



No particular awareness of the weather is required.    There are no Weather-warnings

Pagina Historial Weather Underground text

Diari Resum Juny 10, 2017 Unitats:  Mètric    Imperial   Tant
« Previous Dia
SegĂźent Dia »
Diari Setmana Mensual Anual Personalitzada
  Maxima: Minima: Media:
Temperatura: -17.8 °C -9.2 °C -3.3 °C
Punt de rosada: -17.8 °C -13.4 °C -11.5 °C
Humitat: Humidity % 24 % 43 %
Wind Speed: 0 km/h 0 km/h 10.1 km/h
RĂ fegues de vent: 0 km/h - -
Vent:- - SSW
Pression baro: 0 hPa 34361.1 hPa -
Precipitacions: 0 mm    
Historical Graphs
 
 
Dades de taula per Juny 10, 2017
Temps Temperatura Punt de rosada Pression baro Vent Wind Speed RĂ fegues de vent Humitat Rainfall Rate (Hourly)
-17.8 °C -17.8 °C 0 hPa Calm     Humidity % 0 mm
00:00 -8.4 °C -10.2 °C 34462.7 hPa Calm     82 % 0 mm
00:01 -6.8 °C -9.6 °C 34462.7 hPa NNW 3.1 km/h   73 % 0 mm
00:06 -6.9 °C -9.6 °C 34496.6 hPa NNE 3.1 km/h 3.1 km/h 74 % 0 mm
00:10 -8.6 °C -10.4 °C 34462.7 hPa WNW 2.6 km/h 5.1 km/h 81 % 0 mm
00:20 -8.6 °C -10.4 °C 34462.7 hPa Calm   5.1 km/h 81 % 0 mm
00:30 -8.9 °C -10.8 °C 34462.7 hPa WNW 2.6 km/h 5.1 km/h 80 % 0 mm
00:40 -9 °C -11 °C 34462.7 hPa WSW 2.6 km/h 5.1 km/h 79 % 0 mm
00:50 -9.1 °C -11.2 °C 34462.7 hPa Calm   5.1 km/h 79 % 0 mm
01:00 -9.1 °C -11.2 °C 34462.7 hPa Calm   5.1 km/h 79 % 0 mm
01:10 -9.1 °C -11.2 °C 34462.7 hPa WSW 2.6 km/h 5.1 km/h 79 % 0 mm
01:20 -9.2 °C -11.2 °C 34462.7 hPa WSW 2.6 km/h 2.6 km/h 79 % 0 mm
01:30 -9.2 °C -11.2 °C 34462.7 hPa WSW 2.6 km/h 5.1 km/h 79 % 0 mm
01:40 -9.2 °C -11.2 °C 34462.7 hPa Calm   5.1 km/h 79 % 0 mm
01:50 -9.2 °C -11.2 °C 34462.7 hPa SW 5.1 km/h 7.7 km/h 79 % 0 mm
02:00 -9.2 °C -11.2 °C 34462.7 hPa SW 5.1 km/h 7.7 km/h 79 % 0 mm
02:10 -9.2 °C -11.2 °C 34496.6 hPa SW 5.1 km/h 5.1 km/h 79 % 0 mm
02:20 -9.1 °C -11.1 °C 34496.6 hPa SW 2.6 km/h 5.1 km/h 79 % 0 mm
02:30 -8.8 °C -10.8 °C 34496.6 hPa Calm   2.6 km/h 79 % 0 mm
02:40 -8.1 °C -10.1 °C 34496.6 hPa Calm     79 % 0 mm
02:50 -7.3 °C -9.6 °C 34496.6 hPa Calm   2.6 km/h 77 % 0 mm
03:00 -7 °C -9.6 °C 34496.6 hPa Calm     74 % 0 mm
03:10 -6.8 °C -9.6 °C 34496.6 hPa SE 2.6 km/h 5.1 km/h 73 % 0 mm
03:20 -7.1 °C -9.9 °C 34496.6 hPa SSW 5.1 km/h 5.1 km/h 72 % 0 mm
03:30 -6.9 °C -9.8 °C 34496.6 hPa SW 2.6 km/h 5.1 km/h 72 % 0 mm
03:40 -6.5 °C -9.6 °C 34496.6 hPa SW 2.6 km/h 5.1 km/h 70 % 0 mm
03:50 -5.9 °C -9.3 °C 34496.6 hPa Calm   5.1 km/h 68 % 0 mm
04:00 -5.6 °C -9.4 °C 34496.6 hPa ESE 2.6 km/h 5.1 km/h 65 % 0 mm
04:10 -5.3 °C -9.2 °C 34496.6 hPa Calm   10.3 km/h 65 % 0 mm
04:20 -5.2 °C -9.3 °C 34496.6 hPa SSW 2.6 km/h 5.1 km/h 63 % 0 mm
04:30 -5 °C -9.1 °C 34533.8 hPa SW 5.1 km/h 5.1 km/h 63 % 0 mm
04:40 -4.8 °C -9.1 °C 34496.6 hPa SW 2.6 km/h 7.7 km/h 62 % 0 mm
04:50 -4.4 °C -9 °C 34496.6 hPa West 5.1 km/h 5.1 km/h 60 % 0 mm
05:00 -4 °C -8.8 °C 34496.6 hPa Calm   7.7 km/h 59 % 0 mm
05:10 -3.9 °C -8.8 °C 34533.8 hPa NE 2.6 km/h 5.1 km/h 58 % 0 mm
05:20 -3.7 °C -9.1 °C 34533.8 hPa ENE 5.1 km/h 7.7 km/h 55 % 0 mm
05:30 -3.2 °C -8.8 °C 34533.8 hPa SE 5.1 km/h 5.1 km/h 54 % 0 mm
05:40 -2.8 °C -8.4 °C 34496.6 hPa SSE 2.6 km/h 7.7 km/h 54 % 0 mm
05:50 -2.4 °C -8.6 °C 34496.6 hPa SSE 2.6 km/h 5.1 km/h 51 % 0 mm
10:56 -2.4 °C -9.1 °C 34496.6 hPa SSE 6 km/h 6 km/h 48 % 0 mm
11:01 -2.4 °C -9.5 °C 34496.6 hPa ESE 9 km/h 9 km/h 46 % 0 mm
11:06 -2.2 °C -8.9 °C 34496.6 hPa West 6 km/h 6 km/h 48 % 0 mm
11:11 -1.8 °C -8.7 °C 34496.6 hPa WSW 4.2 km/h 4.2 km/h 47 % 0 mm
11:16 -1.7 °C -8.8 °C 34496.6 hPa WSW 6 km/h 6 km/h 46 % 0 mm
11:21 -1.7 °C -8.9 °C 34462.7 hPa WSW 11.1 km/h 11.1 km/h 45 % 0 mm
11:26 -1.7 °C -9.2 °C 34462.7 hPa SSW 11.9 km/h 11.9 km/h 44 % 0 mm
11:31 -1.4 °C -9.1 °C 34462.7 hPa SW 11.9 km/h 11.9 km/h 43 % 0 mm
11:36 -1.5 °C -9.2 °C 34462.7 hPa SW 9 km/h 9 km/h 43 % 0 mm
11:41 -1.2 °C -9.2 °C 34462.7 hPa WNW 6 km/h 6 km/h 42 % 0 mm
11:46 -1.2 °C -9.6 °C 34462.7 hPa WSW 3.1 km/h 4.2 km/h 40 % 0 mm
11:51 -1.1 °C -9.7 °C 34462.7 hPa SW 15 km/h 15 km/h 39 % 0 mm
11:56 -0.8 °C -9.7 °C 34462.7 hPa SW 6 km/h 6 km/h 38 % 0 mm
12:01 -0.8 °C -10.3 °C 34462.7 hPa SSE 9 km/h 9 km/h 35 % 0 mm
12:06 -1.1 °C -10.9 °C 34462.7 hPa South 6.3 km/h 6.3 km/h 34 % 0 mm
12:11 -0.9 °C -10.7 °C 34462.7 hPa ESE 8 km/h 8 km/h 34 % 0 mm
12:16 -1.2 °C -10.7 °C 34462.7 hPa East 11.9 km/h 11.9 km/h 35 % 0 mm
12:21 -1 °C -10.5 °C 34462.7 hPa SE 15 km/h 15 km/h 35 % 0 mm
12:26 -0.9 °C -9.7 °C 34462.7 hPa SW 17.9 km/h 17.9 km/h 38 % 0 mm
12:27 -0.9 °C -9.7 °C 34462.7 hPa SW 17.9 km/h 17.9 km/h 38 % 0 mm
12:32 -0.6 °C -9.5 °C 34462.7 hPa West 15 km/h 15 km/h 38 % 0 mm
12:37 -0.6 °C -9.9 °C 34462.7 hPa WSW 9 km/h 9 km/h 36 % 0 mm
12:42 -0.6 °C -9.9 °C 34462.7 hPa ESE 9 km/h 9.3 km/h 36 % 0 mm
12:47 -0.6 °C -9.9 °C 34428.8 hPa WSW 11.9 km/h 11.9 km/h 36 % 0 mm
12:52 -0.6 °C -9.9 °C 34428.8 hPa East 6 km/h 6 km/h 36 % 0 mm
12:57 -0.4 °C -9.8 °C 34428.8 hPa SE 6 km/h 6 km/h 36 % 0 mm
13:02 -0.3 °C -9.7 °C 34428.8 hPa SW 17.9 km/h 17.9 km/h 36 % 0 mm
13:07 -0.2 °C -10.1 °C 34428.8 hPa SSE 9 km/h 9 km/h 34 % 0 mm
13:12 -0.1 °C -9.8 °C 34428.8 hPa SW 6.8 km/h 6.8 km/h 35 % 0 mm
13:17 0.2 °C -9.4 °C 34428.8 hPa SSW 6.8 km/h 6.8 km/h 35 % 0 mm
13:22 0.1 °C -9.8 °C 34428.8 hPa NNE 9 km/h 9 km/h 34 % 0 mm
13:27 0 °C -10.2 °C 34428.8 hPa South 6 km/h 6 km/h 33 % 0 mm
13:32 -0.1 °C -10.5 °C 34395 hPa ESE 11.9 km/h 11.9 km/h 32 % 0 mm
13:37 -0.3 °C -10.7 °C 34395 hPa East 15.6 km/h 15.6 km/h 32 % 0 mm
13:42 0 °C -10.4 °C 34395 hPa East 11.9 km/h 11.9 km/h 32 % 0 mm
13:47 -0.3 °C -10.4 °C 34395 hPa NE 15 km/h 15 km/h 33 % 0 mm
13:52 -0.5 °C -10.6 °C 34395 hPa ESE 20.9 km/h 20.9 km/h 33 % 0 mm
13:57 -0.8 °C -11.1 °C 34395 hPa ENE 26.9 km/h 26.9 km/h 32 % 0 mm
14:02 -0.7 °C -11.3 °C 34395 hPa SSE 15 km/h 15 km/h 31 % 0 mm
14:07 -0.7 °C -11 °C 34395 hPa ESE 23.8 km/h 23.8 km/h 32 % 0 mm
14:12 -0.8 °C -11.6 °C 34395 hPa SSE 23.8 km/h 23.8 km/h 30 % 0 mm
14:17 -0.6 °C -11.5 °C 34395 hPa ESE 23.8 km/h 23.8 km/h 30 % 0 mm
14:22 -0.8 °C -12 °C 34395 hPa ESE 26.9 km/h 26.9 km/h 29 % 0 mm
14:27 -0.8 °C -11.6 °C 34395 hPa ESE 22 km/h 22 km/h 30 % 0 mm
14:32 -0.9 °C -12.1 °C 34395 hPa East 15 km/h 16.1 km/h 29 % 0 mm
14:37 -0.9 °C -12 °C 34395 hPa East 17.9 km/h 17.9 km/h 29 % 0 mm
14:42 -0.6 °C -11.8 °C 34395 hPa SE 20.9 km/h 20.9 km/h 29 % 0 mm
14:47 -0.6 °C -11.8 °C 34395 hPa ESE 15 km/h 15 km/h 29 % 0 mm
14:52 -0.6 °C -11.8 °C 34395 hPa SW 20.9 km/h 20.9 km/h 29 % 0 mm
14:57 0 °C -11.6 °C 34395 hPa SW 11.9 km/h 11.9 km/h 28 % 0 mm
15:02 0.5 °C -11.1 °C 34395 hPa South 11.9 km/h 11.9 km/h 28 % 0 mm
15:07 0.3 °C -11.3 °C 34395 hPa SSE 9 km/h 9 km/h 28 % 0 mm
15:12 0.4 °C -11.5 °C 34395 hPa South 9 km/h 9 km/h 27 % 0 mm
15:17 0.4 °C -11.5 °C 34395 hPa NNW 15 km/h 15 km/h 27 % 0 mm
15:22 0.6 °C -11.4 °C 34395 hPa SW 16.1 km/h 16.1 km/h 27 % 0 mm
15:27 0.7 °C -11.2 °C 34395 hPa WSW 14.5 km/h 14.5 km/h 27 % 0 mm
15:32 0.8 °C -11.5 °C 34395 hPa SSW 15.3 km/h 15.3 km/h 26 % 0 mm
15:37 0.6 °C -11.7 °C 34395 hPa SW 15 km/h 15 km/h 26 % 0 mm
15:42 0.6 °C -12 °C 34395 hPa South 20.9 km/h 20.9 km/h 25 % 0 mm
15:47 0.8 °C -11.4 °C 34395 hPa South 17.9 km/h 17.9 km/h 26 % 0 mm
15:52 0.5 °C -12.1 °C 34395 hPa South 17.9 km/h 17.9 km/h 25 % 0 mm
15:57 0.3 °C -12.6 °C 34395 hPa SW 25.4 km/h 25.4 km/h 24 % 0 mm
16:02 0.2 °C -12.3 °C 34361.1 hPa SW 23.8 km/h 23.8 km/h 25 % 0 mm
16:07 0.1 °C -12.4 °C 34361.1 hPa SSW 16.6 km/h 16.6 km/h 25 % 0 mm
16:12 0.3 °C -12.3 °C 34361.1 hPa WSW 19.6 km/h 19.6 km/h 25 % 0 mm
16:17 0.3 °C -12.2 °C 34395 hPa SW 20.9 km/h 20.9 km/h 25 % 0 mm
16:22 0.1 °C -12.4 °C 34395 hPa WSW 17.9 km/h 17.9 km/h 25 % 0 mm
16:27 -0.1 °C -12.2 °C 34395 hPa South 26.9 km/h 26.9 km/h 26 % 0 mm
16:32 0 °C -12.5 °C 34395 hPa WSW 26.9 km/h 26.9 km/h 25 % 0 mm
16:37 -0.1 °C -12.2 °C 34395 hPa SW 17.9 km/h 17.9 km/h 26 % 0 mm
16:42 -0.2 °C -12.3 °C 34395 hPa WSW 26.9 km/h 26.9 km/h 26 % 0 mm
16:47 -0.1 °C -12.2 °C 34361.1 hPa SW 25.1 km/h 25.1 km/h 26 % 0 mm
16:52 0.1 °C -12.4 °C 34361.1 hPa SW 12.2 km/h 12.2 km/h 25 % 0 mm
16:57 -0.1 °C -12.2 °C 34361.1 hPa SSW 26.9 km/h 26.9 km/h 26 % 0 mm
17:02 -0.1 °C -12.2 °C 34395 hPa SW 20.3 km/h 20.3 km/h 26 % 0 mm
17:07 0 °C -12.5 °C 34395 hPa SSW 15 km/h 15 km/h 25 % 0 mm
17:12 -0.1 °C -12.2 °C 34395 hPa SW 20.9 km/h 20.9 km/h 26 % 0 mm
17:17 -0.3 °C -12.7 °C 34395 hPa SW 17.9 km/h 17.9 km/h 25 % 0 mm
17:22 -0.3 °C -12.4 °C 34395 hPa WSW 15.3 km/h 15.3 km/h 26 % 0 mm
17:27 -0.3 °C -12.4 °C 34395 hPa SW 27.7 km/h 27.7 km/h 26 % 0 mm
17:32 -0.4 °C -12.6 °C 34395 hPa SSW 26.9 km/h 26.9 km/h 26 % 0 mm
17:37 -0.4 °C -12.6 °C 34395 hPa WNW 15 km/h 15 km/h 26 % 0 mm
17:42 -0.4 °C -12.6 °C 34395 hPa SW 20.9 km/h 20.9 km/h 26 % 0 mm
17:47 -0.4 °C -12.6 °C 34395 hPa SW 10.3 km/h 10.3 km/h 26 % 0 mm
17:52 -0.6 °C -12.7 °C 34395 hPa SW 26.9 km/h 26.9 km/h 26 % 0 mm
17:57 -0.5 °C -12.3 °C 34395 hPa South 15 km/h 15 km/h 27 % 0 mm
18:02 -0.4 °C -12.2 °C 34395 hPa SSW 11.9 km/h 11.9 km/h 27 % 0 mm
18:07 -0.4 °C -12.2 °C 34395 hPa South 17.9 km/h 17.9 km/h 27 % 0 mm
18:12 -0.4 °C -12.2 °C 34395 hPa WSW 20.3 km/h 20.3 km/h 27 % 0 mm
18:17 -0.4 °C -12.2 °C 34395 hPa SW 19.2 km/h 19.2 km/h 27 % 0 mm
18:18 -0.5 °C -12.3 °C 34395 hPa SW 17.9 km/h 17.9 km/h 27 % 0 mm
18:23 -0.7 °C -12.4 °C 34395 hPa SW 16.1 km/h 16.1 km/h 27 % 0 mm
18:28 -0.6 °C -12.3 °C 34395 hPa SSW 12.7 km/h 12.7 km/h 27 % 0 mm
18:33 -0.9 °C -12.7 °C 34395 hPa South 20.9 km/h 20.9 km/h 27 % 0 mm
18:38 -1.1 °C -12.8 °C 34395 hPa SSW 15 km/h 15 km/h 27 % 0 mm
18:43 -0.9 °C -12.3 °C 34395 hPa SSW 17.9 km/h 17.9 km/h 28 % 0 mm
18:48 -1.1 °C -12.5 °C 34395 hPa SW 26.9 km/h 26.9 km/h 28 % 0 mm
18:53 -1.2 °C -12.6 °C 34395 hPa SW 15 km/h 15 km/h 28 % 0 mm
18:58 -1.3 °C -12.7 °C 34395 hPa South 20.9 km/h 20.9 km/h 28 % 0 mm
19:03 -1.4 °C -12.8 °C 34395 hPa SW 16.1 km/h 16.1 km/h 28 % 0 mm
19:08 -1.6 °C -12.9 °C 34395 hPa SSW 11.9 km/h 11.9 km/h 28 % 0 mm
19:13 -1.6 °C -12.9 °C 34395 hPa SW 27.7 km/h 27.7 km/h 28 % 0 mm
19:18 -1.7 °C -12.7 °C 34395 hPa South 17.9 km/h 17.9 km/h 29 % 0 mm
19:20 -5.7 °C -12.1 °C 34462.7 hPa WSW 5.1 km/h 5.1 km/h 48 % 0 mm
19:23 -1.7 °C -12.7 °C 34395 hPa WSW 15 km/h 15 km/h 29 % 0 mm
19:24 -1.7 °C -12.7 °C 34395 hPa SSW 10.3 km/h 10.3 km/h 29 % 0 mm
19:29 -1.9 °C -12.9 °C 34395 hPa WSW 20.9 km/h 20.9 km/h 29 % 0 mm
19:30 -5.8 °C -12.1 °C 34462.7 hPa WSW 2.6 km/h 5.1 km/h 49 % 0 mm
19:34 -2.1 °C -13.1 °C 34395 hPa WSW 17.4 km/h 17.4 km/h 29 % 0 mm
19:39 -2.1 °C -13.1 °C 34395 hPa WSW 15 km/h 15 km/h 29 % 0 mm
19:40 -5.9 °C -11.9 °C 34462.7 hPa WSW 2.6 km/h 5.1 km/h 50 % 0 mm
19:44 -2.3 °C -12.9 °C 34395 hPa SSW 17.9 km/h 17.9 km/h 30 % 0 mm
19:49 -2.4 °C -13 °C 34395 hPa WSW 23.8 km/h 23.8 km/h 30 % 0 mm
19:54 -2.5 °C -13.1 °C 34395 hPa South 20.9 km/h 20.9 km/h 30 % 0 mm
19:59 -2.6 °C -13.2 °C 34395 hPa SW 17.9 km/h 17.9 km/h 30 % 0 mm
20:00 -6 °C -11.6 °C 34462.7 hPa Calm   5.1 km/h 53 % 0 mm
20:04 -2.7 °C -13.3 °C 34395 hPa WSW 15 km/h 15 km/h 30 % 0 mm
20:09 -2.8 °C -13.4 °C 34395 hPa WSW 11.9 km/h 11.9 km/h 30 % 0 mm
20:10 -6.2 °C -11.4 °C 34462.7 hPa Calm     55 % 0 mm
20:14 -2.8 °C -13.4 °C 34395 hPa SW 11.9 km/h 11.9 km/h 30 % 0 mm
20:19 -2.9 °C -13.2 °C 34395 hPa SSW 11.9 km/h 11.9 km/h 31 % 0 mm
20:20 -6.3 °C -11.6 °C 34462.7 hPa Calm     55 % 0 mm
20:24 -3 °C -13.3 °C 34395 hPa SSW 9 km/h 9 km/h 31 % 0 mm
20:29 -3.1 °C -13.3 °C 34395 hPa SSW 10.3 km/h 10.3 km/h 31 % 0 mm
20:30 -6.4 °C -11.5 °C 34462.7 hPa Calm   5.1 km/h 56 % 0 mm
20:34 -3.2 °C -13.4 °C 34395 hPa WSW 11.1 km/h 11.1 km/h 31 % 0 mm
20:39 -3.3 °C -13.3 °C 34395 hPa WSW 9 km/h 9 km/h 32 % 0 mm
20:40 -6.6 °C -11.3 °C 34462.7 hPa Calm     58 % 0 mm
20:44 -3.4 °C -13.4 °C 34395 hPa SW 20.9 km/h 20.9 km/h 32 % 0 mm
20:49 -3.5 °C -13.4 °C 34395 hPa SW 12.7 km/h 12.7 km/h 32 % 0 mm
20:50 -6.6 °C -11.2 °C 34462.7 hPa Calm     59 % 0 mm
20:54 -3.6 °C -13.3 °C 34395 hPa SW 9.8 km/h 9.8 km/h 33 % 0 mm
20:59 -3.7 °C -13.4 °C 34395 hPa SSW 15 km/h 15 km/h 33 % 0 mm
21:00 -6.4 °C -11.1 °C 34462.7 hPa WSW 2.6 km/h 5.1 km/h 59 % 0 mm
21:04 -3.7 °C -13.4 °C 34395 hPa SW 15 km/h 15 km/h 33 % 0 mm
21:09 -3.8 °C -13.3 °C 34395 hPa SSW 6.8 km/h 6.8 km/h 34 % 0 mm
21:10 -6.3 °C -11.1 °C 34428.8 hPa West 5.1 km/h 5.1 km/h 58 % 0 mm
21:14 -3.9 °C -13.1 °C 34395 hPa SSW 6.8 km/h 6.8 km/h 35 % 0 mm
21:19 -4.1 °C -13.2 °C 34395 hPa SSW 17.9 km/h 17.9 km/h 35 % 0 mm
21:20 -6.3 °C -10.9 °C 34428.8 hPa WSW 2.6 km/h 5.1 km/h 59 % 0 mm
21:24 -4.2 °C -13.1 °C 34395 hPa SW 11.9 km/h 11.9 km/h 36 % 0 mm
21:29 -4.2 °C -13.2 °C 34395 hPa SW 7.6 km/h 7.6 km/h 36 % 0 mm
21:30 -6.3 °C -10.9 °C 34395 hPa Calm   2.6 km/h 59 % 0 mm
21:34 -4.3 °C -13 °C 34395 hPa SSW 3.7 km/h 5.6 km/h 37 % 0 mm
21:39 -4.4 °C -13.1 °C 34395 hPa SW 6.8 km/h 6.8 km/h 37 % 0 mm
21:40 -6.6 °C -11.1 °C 34395 hPa West 2.6 km/h 5.1 km/h 60 % 0 mm
21:44 -4.5 °C -13.2 °C 34395 hPa SW 9 km/h 9 km/h 37 % 0 mm
21:49 -4.6 °C -13 °C 34395 hPa WSW 7.6 km/h 7.6 km/h 38 % 0 mm
21:50 -6.8 °C -11 °C 34395 hPa North 2.6 km/h 2.6 km/h 62 % 0 mm
21:54 -4.7 °C -13.1 °C 34395 hPa SW 9 km/h 9 km/h 38 % 0 mm
21:59 -4.7 °C -12.9 °C 34395 hPa WSW 6 km/h 6 km/h 39 % 0 mm
22:00 -7 °C -11.2 °C 34395 hPa Calm   2.6 km/h 62 % 0 mm
22:04 -4.8 °C -12.9 °C 34361.1 hPa WSW 6 km/h 6 km/h 39 % 0 mm
22:09 -4.8 °C -13 °C 34361.1 hPa WSW 9 km/h 9 km/h 39 % 0 mm
22:10 -7.2 °C -11.2 °C 34395 hPa Calm     63 % 0 mm
22:14 -4.9 °C -12.9 °C 34361.1 hPa WSW 6 km/h 6 km/h 40 % 0 mm
22:19 -5 °C -12.9 °C 34395 hPa WSW 6 km/h 6 km/h 40 % 0 mm
22:20 -7.3 °C -11.1 °C 34395 hPa Calm     65 % 0 mm
22:24 -5.1 °C -12.6 °C 34395 hPa WSW 3.7 km/h 3.7 km/h 42 % 0 mm
22:29 -5.1 °C -12.7 °C 34395 hPa WSW 3.1 km/h 3.1 km/h 42 % 0 mm
22:30 -7.5 °C -11.3 °C 34395 hPa North 2.6 km/h 2.6 km/h 64 % 0 mm
22:34 -5.2 °C -12.6 °C 34395 hPa WSW 6 km/h 6 km/h 43 % 0 mm
22:39 -5.2 °C -12.6 °C 34395 hPa WSW 3.1 km/h 3.1 km/h 43 % 0 mm
22:40 -7.7 °C -11.6 °C 34395 hPa West 2.6 km/h 5.1 km/h 64 % 0 mm
22:44 -5.3 °C -12.6 °C 34395 hPa West 6.8 km/h 6.8 km/h 43 % 0 mm
22:49 -5.3 °C -12.4 °C 34428.8 hPa SW 6 km/h 6 km/h 44 % 0 mm
22:50 -7.8 °C -11.6 °C 34395 hPa Calm   2.6 km/h 64 % 0 mm
22:54 -5.4 °C -12.3 °C 34428.8 hPa SW 3.1 km/h 3.1 km/h 45 % 0 mm
22:59 -5.4 °C -12.4 °C 34428.8 hPa WSW 4.2 km/h   45 % 0 mm
23:00 -7.8 °C -11.6 °C 34395 hPa SW 2.6 km/h 5.1 km/h 64 % 0 mm
23:04 -5.5 °C -12.4 °C 34428.8 hPa WSW 3.1 km/h 3.1 km/h 45 % 0 mm
23:09 -5.5 °C -12.3 °C 34428.8 hPa WSW 4.2 km/h   46 % 0 mm
23:10 -7.8 °C -11.6 °C 34361.1 hPa Calm     64 % 0 mm
23:14 -5.6 °C -12.3 °C 34428.8 hPa WSW 6 km/h   46 % 0 mm
23:19 -5.6 °C -12.3 °C 34462.7 hPa West 6 km/h 6 km/h 46 % 0 mm
23:20 -7.8 °C -11.7 °C 34361.1 hPa South 2.6 km/h 5.1 km/h 64 % 0 mm
23:24 -5.6 °C -12.3 °C 34462.7 hPa West 4.2 km/h 4.2 km/h 46 % 0 mm
23:29 -5.6 °C -12.3 °C 34462.7 hPa WSW 6 km/h 6 km/h 46 % 0 mm
23:30 -7.9 °C -11.7 °C 34361.1 hPa Calm   2.6 km/h 64 % 0 mm
23:34 -5.6 °C -12.1 °C 34462.7 hPa West 5.1 km/h 5.1 km/h 47 % 0 mm
23:39 -5.6 °C -12.2 °C 34462.7 hPa West 6 km/h 6 km/h 47 % 0 mm
23:40 -7.9 °C -11.8 °C 34395 hPa SW 2.6 km/h 5.1 km/h 63 % 0 mm
23:44 -5.6 °C -12.2 °C 34462.7 hPa WSW 6 km/h 6 km/h 47 % 0 mm
23:49 -5.6 °C -12.2 °C 34462.7 hPa WSW 6 km/h 6 km/h 47 % 0 mm
23:50 -8 °C -12.1 °C 34395 hPa Calm   2.6 km/h 62 % 0 mm
23:54 -5.6 °C -12 °C 34462.7 hPa WSW 4.2 km/h 4.2 km/h 48 % 0 mm
23:59 -5.6 °C -12 °C 34462.7 hPa West 6 km/h 6 km/h 48 % 0 mm
Meteo Sesrovires
Elogis d' Weather Underground - 4 mb

Guio original per  Jim McMurry - jmcmurry@mwt.net Adaptat per a la plantilla per  Wim van der Kuil - Leuven-Template.eu

Trobareu la nostra informacio del temps tambe a:

Weather Underground

AWEKAS